Time;durP1;ratioP1;P1;durP2;ratioP2;P2;SDS_P1;SDS_P2;PMS_P1;PMS_P2;Temp;Humidity;BMP_temperature;BMP_pressure;BME280_temperature;BME280_humidity;BME280_pressure;Samples;Min_cycle;Max_cycle;Signal;HPM_P1;HPM_P2
2021/10/14 00:02:13;;;;;;;;;;;3.60;99.90;;;;;;5088594;28;20406;-73
2021/10/14 00:04:45;;;;;;;;;;;3.60;99.90;;;;;;5088435;28;19932;-72
2021/10/14 00:07:16;;;;;;;;;;;3.60;99.90;;;;;;5071155;28;19924;-72
2021/10/14 00:09:48;;;;;;;;;;;3.60;99.90;;;;;;5072255;28;19925;-73
2021/10/14 00:12:15;;;;;;;;;;;3.50;99.90;;;;;;5070896;28;19925;-73
2021/10/14 00:14:42;;;;;;;;;;;3.50;99.90;;;;;;5070335;28;20386;-73
2021/10/14 00:17:09;;;;;;;;;;;3.50;99.90;;;;;;5070782;28;19959;-72
2021/10/14 00:19:40;;;;;;;;;;;3.50;99.90;;;;;;5071128;28;19924;-73
2021/10/14 00:22:12;;;;;;;;;;;3.50;99.90;;;;;;5070501;28;19928;-73
2021/10/14 00:24:44;;;;;;;;;;;3.50;99.90;;;;;;5088116;28;19935;-73
2021/10/14 00:27:16;;;;;;;;;;;3.50;99.90;;;;;;5070923;28;19978;-73
2021/10/14 00:29:47;;;;;;;;;;;3.50;99.90;;;;;;5070723;28;19925;-73
2021/10/14 00:32:19;;;;;;;;;;;3.50;99.90;;;;;;5070902;28;20387;-73
2021/10/14 00:34:46;;;;;;;;;;;3.60;99.90;;;;;;5070344;28;19924;-73
2021/10/14 00:37:13;;;;;;;;;;;3.60;99.90;;;;;;5104499;28;19924;-73
2021/10/14 00:39:45;;;;;;;;;;;3.60;99.90;;;;;;5070657;28;19931;-73
2021/10/14 00:42:12;;;;;;;;;;;3.50;99.90;;;;;;5104372;28;19930;-73
2021/10/14 00:44:45;;;;;;;;;;;3.60;99.90;;;;;;5070617;28;19936;-73
2021/10/14 00:47:18;;;;;;;;;;;3.50;99.90;;;;;;5088003;28;19924;-73
2021/10/14 00:49:46;;;;;;;;;;;3.50;99.90;;;;;;5070582;28;19960;-73
2021/10/14 00:52:18;;;;;;;;;;;3.40;99.90;;;;;;5088046;28;19932;-73
2021/10/14 00:54:46;;;;;;;;;;;3.40;99.90;;;;;;5070040;28;19950;-72
2021/10/14 00:57:13;;;;;;;;;;;3.30;99.90;;;;;;5104213;28;20446;-72
2021/10/14 00:59:41;;;;;;;;;;;3.40;99.90;;;;;;5106903;28;19932;-72
2021/10/14 01:02:07;;;;;;;;;;;3.40;99.90;;;;;;5107837;28;19924;-72
2021/10/14 01:04:39;;;;;;;;;;;3.40;99.90;;;;;;5091099;28;19932;-73
2021/10/14 01:07:07;;;;;;;;;;;3.40;99.90;;;;;;5075154;28;20047;-72
2021/10/14 01:09:40;;;;;;;;;;;3.40;99.90;;;;;;5091803;28;19924;-73
2021/10/14 01:12:07;;;;;;;;;;;3.40;99.90;;;;;;5107797;28;19924;-72
2021/10/14 01:14:34;;;;;;;;;;;3.40;99.90;;;;;;5075221;28;19968;-72
2021/10/14 01:17:01;;;;;;;;;;;3.30;99.90;;;;;;5075330;28;19925;-72
2021/10/14 01:19:36;;;;;;;;;;;3.30;99.90;;;;;;5074321;28;19925;-72
2021/10/14 01:22:03;;;;;;;;;;;3.30;99.90;;;;;;5075033;28;19974;-72
2021/10/14 01:24:30;;;;;;;;;;;3.30;99.90;;;;;;5073101;28;19925;-71
2021/10/14 01:27:00;;;;;;;;;;;3.30;99.90;;;;;;5107426;28;20018;-71
2021/10/14 01:29:33;;;;;;;;;;;3.30;99.90;;;;;;5074570;28;19939;-71
2021/10/14 01:32:00;;;;;;;;;;;3.30;99.90;;;;;;5073217;28;20310;-72
2021/10/14 01:34:27;;;;;;;;;;;3.30;99.90;;;;;;5073862;28;19924;-72
2021/10/14 01:36:54;;;;;;;;;;;3.20;99.90;;;;;;5074535;28;19924;-72
2021/10/14 01:39:26;;;;;;;;;;;3.20;99.90;;;;;;5091393;28;19931;-72
2021/10/14 01:41:53;;;;;;;;;;;3.20;99.90;;;;;;5073717;28;19928;-72
2021/10/14 01:44:24;;;;;;;;;;;3.10;99.90;;;;;;5073520;28;19932;-72
2021/10/14 01:46:56;;;;;;;;;;;3.10;99.90;;;;;;5074881;28;19924;-72
2021/10/14 01:49:28;;;;;;;;;;;3.10;99.90;;;;;;5073875;28;19931;-72
2021/10/14 01:51:55;;;;;;;;;;;3.10;99.90;;;;;;5073536;28;19928;-72
2021/10/14 01:54:22;;;;;;;;;;;3.00;99.90;;;;;;5074526;28;19929;-72
2021/10/14 01:56:53;;;;;;;;;;;3.00;99.90;;;;;;5091147;28;19928;-71
2021/10/14 01:59:25;;;;;;;;;;;3.00;99.90;;;;;;5073499;28;19936;-72
2021/10/14 02:01:52;;;;;;;;;;;3.00;99.90;;;;;;5107077;28;20294;-71
2021/10/14 02:04:19;;;;;;;;;;;3.00;99.90;;;;;;5074337;28;19924;-71
2021/10/14 02:06:46;;;;;;;;;;;2.90;99.90;;;;;;5107287;28;20405;-72
2021/10/14 02:09:18;;;;;;;;;;;3.00;99.90;;;;;;5074469;28;19929;-74
2021/10/14 02:11:44;;;;;;;;;;;2.90;99.90;;;;;;5072629;28;20019;-71
2021/10/14 02:14:16;;;;;;;;;;;2.90;99.90;;;;;;5074164;28;19929;-72
2021/10/14 02:16:48;;;;;;;;;;;3.00;99.90;;;;;;5074391;28;19925;-72
2021/10/14 02:19:15;;;;;;;;;;;3.00;99.90;;;;;;5106991;28;19933;-72
2021/10/14 02:21:42;;;;;;;;;;;3.00;99.90;;;;;;5089673;28;19935;-72
2021/10/14 02:24:13;;;;;;;;;;;3.10;99.90;;;;;;5072590;28;19924;-72
2021/10/14 02:26:40;;;;;;;;;;;3.10;99.90;;;;;;5073130;28;19964;-72
2021/10/14 02:29:12;;;;;;;;;;;3.10;99.90;;;;;;5072934;28;19924;-72
2021/10/14 02:31:44;;;;;;;;;;;3.10;99.90;;;;;;5073986;28;19947;-72
2021/10/14 02:34:16;;;;;;;;;;;3.10;99.90;;;;;;5072416;28;19924;-71
2021/10/14 02:36:43;;;;;;;;;;;3.10;99.90;;;;;;5073953;28;19924;-73
2021/10/14 02:39:10;;;;;;;;;;;3.00;99.90;;;;;;5073974;28;19933;-71
2021/10/14 02:41:37;;;;;;;;;;;3.00;99.90;;;;;;5072596;28;20019;-72
2021/10/14 02:44:04;;;;;;;;;;;3.00;99.90;;;;;;5074032;28;19992;-74
2021/10/14 02:46:36;;;;;;;;;;;3.00;99.90;;;;;;5072579;28;20350;-71
2021/10/14 02:49:03;;;;;;;;;;;2.90;99.90;;;;;;5073722;28;19928;-72
2021/10/14 02:51:34;;;;;;;;;;;2.90;99.90;;;;;;5090084;28;19925;-72
2021/10/14 02:54:01;;;;;;;;;;;2.90;99.90;;;;;;5073622;28;19924;-72
2021/10/14 02:56:28;;;;;;;;;;;2.90;99.90;;;;;;5073446;28;19924;-72
2021/10/14 02:59:00;;;;;;;;;;;2.90;99.90;;;;;;5072353;28;19994;-72
2021/10/14 03:01:32;;;;;;;;;;;2.90;99.90;;;;;;5089738;28;19925;-72
2021/10/14 03:04:04;;;;;;;;;;;3.00;99.90;;;;;;5073453;28;19924;-73
2021/10/14 03:06:30;;;;;;;;;;;3.00;99.90;;;;;;5072192;28;20023;-72
2021/10/14 03:09:02;;;;;;;;;;;3.10;99.90;;;;;;5089780;28;20303;-71
2021/10/14 03:11:29;;;;;;;;;;;3.10;99.90;;;;;;5105856;28;20272;-73
2021/10/14 03:14:01;;;;;;;;;;;3.10;99.90;;;;;;5089643;28;19969;-72
2021/10/14 03:16:28;;;;;;;;;;;3.10;99.90;;;;;;5071635;28;19925;-72
2021/10/14 03:19:00;;;;;;;;;;;3.10;99.90;;;;;;5071903;28;19925;-72
2021/10/14 03:21:27;;;;;;;;;;;3.10;99.90;;;;;;5071767;28;19932;-73
2021/10/14 03:23:53;;;;;;;;;;;3.10;99.90;;;;;;5105528;28;19924;-72
2021/10/14 03:26:20;;;;;;;;;;;3.20;99.90;;;;;;5071172;28;19924;-72
2021/10/14 03:28:47;;;;;;;;;;;3.20;99.90;;;;;;5073421;28;19924;-72
2021/10/14 03:31:19;;;;;;;;;;;3.10;99.90;;;;;;5089278;28;20585;-72
2021/10/14 03:33:46;;;;;;;;;;;3.00;99.90;;;;;;5071529;28;19925;-72
2021/10/14 03:36:18;;;;;;;;;;;3.00;99.90;;;;;;5071236;28;19933;-72
2021/10/14 03:38:50;;;;;;;;;;;3.00;99.90;;;;;;5071495;28;19925;-76
2021/10/14 03:41:21;;;;;;;;;;;3.00;99.90;;;;;;5089103;28;19946;-72
2021/10/14 03:43:53;;;;;;;;;;;2.90;99.90;;;;;;5089125;28;19928;-72
2021/10/14 03:46:20;;;;;;;;;;;2.90;99.90;;;;;;5104909;28;20398;-71
2021/10/14 03:48:52;;;;;;;;;;;2.90;99.90;;;;;;5071401;28;19925;-72
2021/10/14 03:51:19;;;;;;;;;;;2.90;99.90;;;;;;5071874;28;19955;-72
2021/10/14 03:53:51;;;;;;;;;;;3.00;99.90;;;;;;5088312;28;19950;-72
2021/10/14 03:56:23;;;;;;;;;;;2.90;99.90;;;;;;5070027;28;19935;-71
2021/10/14 03:58:55;;;;;;;;;;;3.00;99.90;;;;;;5071764;28;19931;-72
2021/10/14 04:01:27;;;;;;;;;;;3.00;99.90;;;;;;5070483;28;19929;-72
2021/10/14 04:03:59;;;;;;;;;;;3.10;99.90;;;;;;5070580;28;19931;-72
2021/10/14 04:06:31;;;;;;;;;;;3.10;99.90;;;;;;5088016;28;19924;-73
2021/10/14 04:08:58;;;;;;;;;;;3.20;99.90;;;;;;5070466;28;20395;-74
2021/10/14 04:11:24;;;;;;;;;;;3.20;99.90;;;;;;5053718;28;19932;-72
2021/10/14 04:13:56;;;;;;;;;;;3.20;99.90;;;;;;5072711;28;19939;-72
2021/10/14 04:16:28;;;;;;;;;;;3.20;99.90;;;;;;5063059;28;20538;-72
2021/10/14 04:19:00;;;;;;;;;;;3.30;99.90;;;;;;5089602;28;19932;-72
2021/10/14 04:21:27;;;;;;;;;;;3.30;99.90;;;;;;5090048;28;19925;-72
2021/10/14 04:23:55;;;;;;;;;;;3.30;99.90;;;;;;5090419;28;20310;-73
2021/10/14 04:26:22;;;;;;;;;;;3.30;99.90;;;;;;5089295;28;19935;-72
2021/10/14 04:28:49;;;;;;;;;;;3.30;99.90;;;;;;5080262;28;19933;-73
2021/10/14 04:31:16;;;;;;;;;;;3.40;99.90;;;;;;5076775;28;19935;-73
2021/10/14 04:33:48;;;;;;;;;;;3.40;99.90;;;;;;5074960;28;19940;-77
2021/10/14 04:36:15;;;;;;;;;;;3.40;99.90;;;;;;5089722;28;19924;-71
2021/10/14 04:38:47;;;;;;;;;;;3.40;99.90;;;;;;5090166;28;19978;-71
2021/10/14 04:41:19;;;;;;;;;;;3.40;99.90;;;;;;5091217;28;20022;-71
2021/10/14 04:43:51;;;;;;;;;;;3.40;99.90;;;;;;5090770;28;19924;-72
2021/10/14 04:46:20;;;;;;;;;;;3.40;99.90;;;;;;5089619;28;19955;-71
2021/10/14 04:48:47;;;;;;;;;;;3.40;99.90;;;;;;5090091;28;20383;-71
2021/10/14 04:51:14;;;;;;;;;;;3.40;99.90;;;;;;5089930;28;20379;-71
2021/10/14 04:53:40;;;;;;;;;;;3.40;99.90;;;;;;5089956;28;19924;-70
2021/10/14 04:56:07;;;;;;;;;;;3.40;99.90;;;;;;5090773;28;19924;-71
2021/10/14 04:58:34;;;;;;;;;;;3.40;99.90;;;;;;5091337;28;19952;-71
2021/10/14 05:01:06;;;;;;;;;;;3.50;99.90;;;;;;5089657;28;19950;-71
2021/10/14 05:03:32;;;;;;;;;;;3.50;99.90;;;;;;5087198;28;19993;-71
2021/10/14 05:05:59;;;;;;;;;;;3.50;99.90;;;;;;5050564;28;19925;-70
2021/10/14 05:08:26;;;;;;;;;;;3.60;99.90;;;;;;5068996;28;19938;-71
2021/10/14 05:10:53;;;;;;;;;;;3.60;99.90;;;;;;5087629;28;20031;-72
2021/10/14 05:13:20;;;;;;;;;;;3.60;99.90;;;;;;5068587;28;19925;-71
2021/10/14 05:15:47;;;;;;;;;;;3.70;99.90;;;;;;5065059;28;20038;-71
2021/10/14 05:18:20;;;;;;;;;;;3.60;99.90;;;;;;5063591;28;19924;-72
2021/10/14 05:20:47;;;;;;;;;;;3.60;99.90;;;;;;5075552;28;19942;-71
2021/10/14 05:23:13;;;;;;;;;;;3.60;99.90;;;;;;5061837;28;20008;-71
2021/10/14 05:25:46;;;;;;;;;;;3.60;99.90;;;;;;5093495;28;20018;-74
2021/10/14 05:28:17;;;;;;;;;;;3.70;99.90;;;;;;5087309;28;20379;-73
2021/10/14 05:30:46;;;;;;;;;;;3.70;99.90;;;;;;5069588;28;19932;-71
2021/10/14 05:33:13;;;;;;;;;;;3.60;99.90;;;;;;5053169;28;19991;-71
2021/10/14 05:35:40;;;;;;;;;;;3.60;99.90;;;;;;5070211;28;20006;-73
2021/10/14 05:38:07;;;;;;;;;;;3.60;99.90;;;;;;5070420;28;19972;-71
2021/10/14 05:40:35;;;;;;;;;;;3.70;99.90;;;;;;5069347;28;19928;-72
2021/10/14 05:43:06;;;;;;;;;;;3.70;99.90;;;;;;5052545;28;20383;-73
2021/10/14 05:45:33;;;;;;;;;;;3.70;99.90;;;;;;5069460;28;20379;-72
2021/10/14 05:48:00;;;;;;;;;;;3.60;99.90;;;;;;5084682;28;19985;-71
2021/10/14 05:50:32;;;;;;;;;;;3.60;99.90;;;;;;5093160;28;20015;-71
2021/10/14 05:52:59;;;;;;;;;;;3.60;99.90;;;;;;5073617;28;20031;-73
2021/10/14 05:55:26;;;;;;;;;;;3.90;99.90;;;;;;5055941;28;19929;-72
2021/10/14 05:57:53;;;;;;;;;;;4.00;99.90;;;;;;5055312;28;19924;-72
2021/10/14 06:00:21;;;;;;;;;;;4.00;99.90;;;;;;5072724;28;19978;-71
2021/10/14 06:02:48;;;;;;;;;;;4.00;99.90;;;;;;5072530;28;19935;-71
2021/10/14 06:05:15;;;;;;;;;;;4.00;99.90;;;;;;5072565;28;20022;-73
2021/10/14 06:07:43;;;;;;;;;;;4.00;99.90;;;;;;5056143;28;19924;-73
2021/10/14 06:10:17;;;;;;;;;;;4.00;99.90;;;;;;5057064;28;19932;-72
2021/10/14 06:12:44;;;;;;;;;;;3.90;99.90;;;;;;5056052;28;19952;-73
2021/10/14 06:15:11;;;;;;;;;;;3.80;99.90;;;;;;5053821;28;19966;-72
2021/10/14 06:17:38;;;;;;;;;;;3.80;99.90;;;;;;5056195;28;19924;-72
2021/10/14 06:20:05;;;;;;;;;;;3.90;99.90;;;;;;5072395;28;19928;-72
2021/10/14 06:22:32;;;;;;;;;;;3.90;99.90;;;;;;5072411;28;19982;-72
2021/10/14 06:25:04;;;;;;;;;;;3.90;99.90;;;;;;5072115;28;19932;-73
2021/10/14 06:27:31;;;;;;;;;;;4.00;99.90;;;;;;5073831;28;19924;-71
2021/10/14 06:29:59;;;;;;;;;;;4.00;99.90;;;;;;5056242;28;19970;-72
2021/10/14 06:32:26;;;;;;;;;;;4.00;99.90;;;;;;5089578;28;19928;-72
2021/10/14 06:34:58;;;;;;;;;;;4.10;99.90;;;;;;5071822;28;19936;-72
2021/10/14 06:37:30;;;;;;;;;;;4.10;99.90;;;;;;5056261;28;19924;-72
2021/10/14 06:39:57;;;;;;;;;;;4.10;99.90;;;;;;5055296;28;19928;-71
2021/10/14 06:42:24;;;;;;;;;;;4.20;99.90;;;;;;5071985;28;19929;-70
2021/10/14 06:44:56;;;;;;;;;;;4.20;99.90;;;;;;5071835;28;19924;-70
2021/10/14 06:47:23;;;;;;;;;;;4.20;99.90;;;;;;5071986;28;20306;-70
2021/10/14 06:49:49;;;;;;;;;;;4.20;99.90;;;;;;5071890;28;20302;-71
2021/10/14 06:52:16;;;;;;;;;;;4.30;99.90;;;;;;5069813;28;19925;-73
2021/10/14 06:54:48;;;;;;;;;;;4.30;99.90;;;;;;5051260;28;19936;-72
2021/10/14 06:57:20;;;;;;;;;;;4.30;99.90;;;;;;5052871;28;19924;-71
2021/10/14 06:59:47;;;;;;;;;;;4.40;99.90;;;;;;5086169;28;20333;-73
2021/10/14 07:02:19;;;;;;;;;;;4.50;99.90;;;;;;5071559;28;19924;-72
2021/10/14 07:04:46;;;;;;;;;;;4.50;99.90;;;;;;5054365;28;19971;-72
2021/10/14 07:07:18;;;;;;;;;;;4.60;99.90;;;;;;5103375;28;19970;-72
2021/10/14 07:09:50;;;;;;;;;;;4.60;99.90;;;;;;5064022;28;19925;-73
2021/10/14 07:12:17;;;;;;;;;;;4.60;99.90;;;;;;5071318;28;19978;-71
2021/10/14 07:14:44;;;;;;;;;;;4.70;99.90;;;;;;5054803;28;19931;-71
2021/10/14 07:17:15;;;;;;;;;;;4.80;99.90;;;;;;5072767;28;19924;-71
2021/10/14 07:19:42;;;;;;;;;;;4.80;99.90;;;;;;5071333;28;19928;-74
2021/10/14 07:22:14;;;;;;;;;;;4.90;99.90;;;;;;5053907;28;19948;-72
2021/10/14 07:24:41;;;;;;;;;;;4.90;99.90;;;;;;5069037;28;19932;-72
2021/10/14 07:27:08;;;;;;;;;;;4.90;99.90;;;;;;5071143;28;19924;-71
2021/10/14 07:29:39;;;;;;;;;;;5.00;99.90;;;;;;5072698;28;19925;-72
2021/10/14 07:32:12;;;;;;;;;;;5.00;99.90;;;;;;5070813;28;20383;-72
2021/10/14 07:34:44;;;;;;;;;;;5.10;99.90;;;;;;5070905;28;19924;-71
2021/10/14 07:37:11;;;;;;;;;;;5.20;99.90;;;;;;5054610;28;19932;-71
2021/10/14 07:39:37;;;;;;;;;;;5.20;99.90;;;;;;5071195;28;19932;-73
2021/10/14 07:42:04;;;;;;;;;;;5.30;99.90;;;;;;5070879;28;19951;-71
2021/10/14 07:44:31;;;;;;;;;;;5.40;99.90;;;;;;5071932;28;19924;-71
2021/10/14 07:46:58;;;;;;;;;;;5.50;99.90;;;;;;5071530;28;20335;-71
2021/10/14 07:49:25;;;;;;;;;;;5.50;99.90;;;;;;5071438;28;19931;-71
2021/10/14 07:51:52;;;;;;;;;;;5.60;99.90;;;;;;5054249;28;19932;-73
2021/10/14 07:54:24;;;;;;;;;;;5.60;99.90;;;;;;5070338;28;19930;-71
2021/10/14 07:56:51;;;;;;;;;;;5.70;99.90;;;;;;5070754;28;19951;-72
2021/10/14 07:59:23;;;;;;;;;;;5.80;99.90;;;;;;5070086;28;19936;-71
2021/10/14 08:01:55;;;;;;;;;;;5.80;99.90;;;;;;5070512;28;19925;-73
2021/10/14 08:04:27;;;;;;;;;;;5.80;99.90;;;;;;5070180;28;19956;-71
2021/10/14 08:06:53;;;;;;;;;;;5.80;99.90;;;;;;5066189;28;19925;-71
2021/10/14 08:09:20;;;;;;;;;;;5.80;99.90;;;;;;5071014;28;19924;-71
2021/10/14 08:11:47;;;;;;;;;;;5.90;99.90;;;;;;5070199;28;20306;-74
2021/10/14 08:14:14;;;;;;;;;;;5.90;99.90;;;;;;5070018;28;19931;-71
2021/10/14 08:16:41;;;;;;;;;;;6.00;99.90;;;;;;5070358;28;19931;-71
2021/10/14 08:19:08;;;;;;;;;;;6.10;99.90;;;;;;5070296;28;20020;-72
2021/10/14 08:21:35;;;;;;;;;;;6.10;99.90;;;;;;5070176;28;19924;-71
2021/10/14 08:24:07;;;;;;;;;;;6.10;99.90;;;;;;5066078;28;20406;-72
2021/10/14 08:26:39;;;;;;;;;;;6.20;99.90;;;;;;5071379;28;19928;-72
2021/10/14 08:29:12;;;;;;;;;;;6.30;99.90;;;;;;5062851;28;20314;-72
2021/10/14 08:31:44;;;;;;;;;;;6.30;99.90;;;;;;5071368;28;19928;-73
2021/10/14 08:34:16;;;;;;;;;;;6.40;99.90;;;;;;5068166;28;19930;-71
2021/10/14 08:36:43;;;;;;;;;;;6.50;99.90;;;;;;5084995;28;19970;-72
2021/10/14 08:39:10;;;;;;;;;;;6.50;99.90;;;;;;5124353;27;19924;-71
2021/10/14 08:41:39;;;;;;;;;;;6.60;99.90;;;;;;5090294;28;19959;-73
2021/10/14 08:44:13;;;;;;;;;;;6.70;99.90;;;;;;5090093;28;19928;-73
2021/10/14 08:46:47;;;;;;;;;;;6.80;99.90;;;;;;5090793;28;19924;-71
2021/10/14 08:49:19;;;;;;;;;;;6.90;99.90;;;;;;5090559;28;19930;-71
2021/10/14 08:51:52;;;;;;;;;;;7.00;99.90;;;;;;5080080;28;19931;-71
2021/10/14 08:54:18;;;;;;;;;;;7.00;99.90;;;;;;5070543;28;19928;-71
2021/10/14 08:56:47;;;;;;;;;;;7.10;99.90;;;;;;5053544;28;20015;-71
2021/10/14 08:59:18;;;;;;;;;;;7.10;99.90;;;;;;5069952;28;19963;-71
2021/10/14 09:02:08;;;;;;;;;;;7.20;99.90;;;;;;5087129;28;20020;-71
2021/10/14 09:04:49;;;;;;;;;;;7.20;99.90;;;;;;5069039;28;20280;-71
2021/10/14 09:07:19;;;;;;;;;;;7.20;99.90;;;;;;5086838;28;19924;-73
2021/10/14 09:09:47;;;;;;;;;;;7.20;99.90;;;;;;5069556;28;19938;-71
2021/10/14 09:12:15;;;;;;;;;;;7.30;99.90;;;;;;5067480;28;20383;-71
2021/10/14 09:14:58;;;;;;;;;;;7.30;99.90;;;;;;5069152;28;20015;-71
2021/10/14 09:17:36;;;;;;;;;;;7.40;99.90;;;;;;5066230;28;19929;-71
2021/10/14 09:20:21;;;;;;;;;;;7.40;99.90;;;;;;5069647;28;20491;-71
2021/10/14 09:22:59;;;;;;;;;;;7.50;99.90;;;;;;5066971;28;20490;-71
2021/10/14 09:25:50;;;;;;;;;;;7.60;99.90;;;;;;5073182;28;20391;-71
2021/10/14 09:28:18;;;;;;;;;;;7.60;99.90;;;;;;5073505;28;19925;-71
2021/10/14 09:31:05;;;;;;;;;;;7.60;99.90;;;;;;5090502;28;20288;-72
2021/10/14 09:33:36;;;;;;;;;;;7.70;99.90;;;;;;5056681;28;19924;-71
2021/10/14 09:36:28;;;;;;;;;;;7.80;99.90;;;;;;5072997;28;19959;-73
2021/10/14 09:39:03;;;;;;;;;;;7.90;99.90;;;;;;5074194;28;20393;-71
2021/10/14 09:41:31;;;;;;;;;;;7.80;99.90;;;;;;5073459;28;19932;-70
2021/10/14 09:44:07;;;;;;;;;;;7.90;99.90;;;;;;5074149;28;19931;-73
2021/10/14 09:46:36;;;;;;;;;;;7.90;99.90;;;;;;5051737;28;20425;-70
2021/10/14 09:49:04;;;;;;;;;;;8.00;99.90;;;;;;5073351;28;19932;-71
2021/10/14 09:51:36;;;;;;;;;;;8.10;99.90;;;;;;5073166;28;19978;-71
2021/10/14 09:54:03;;;;;;;;;;;8.10;99.90;;;;;;5055353;28;19929;-74
2021/10/14 09:56:31;;;;;;;;;;;8.20;99.90;;;;;;5100412;28;19924;-71
2021/10/14 09:59:01;;;;;;;;;;;8.30;99.90;;;;;;5073012;28;20379;-73
2021/10/14 10:01:29;;;;;;;;;;;8.40;99.90;;;;;;5087460;28;19929;-72
2021/10/14 10:03:57;;;;;;;;;;;8.40;99.90;;;;;;5106153;28;19924;-72
2021/10/14 10:06:28;;;;;;;;;;;8.50;99.90;;;;;;5106215;28;19954;-71
2021/10/14 10:08:57;;;;;;;;;;;8.60;99.90;;;;;;5074029;28;19925;-71
2021/10/14 10:11:25;;;;;;;;;;;8.70;99.90;;;;;;5104597;28;19925;-72
2021/10/14 10:13:55;;;;;;;;;;;8.70;99.90;;;;;;5072994;28;19925;-73
2021/10/14 10:16:27;;;;;;;;;;;8.80;99.90;;;;;;5090394;28;19925;-72
2021/10/14 10:18:55;;;;;;;;;;;8.80;99.90;;;;;;5072922;28;19924;-70
2021/10/14 10:21:32;;;;;;;;;;;8.80;99.90;;;;;;5067473;28;19928;-70
2021/10/14 10:24:08;;;;;;;;;;;8.80;99.90;;;;;;5072839;28;19928;-73
2021/10/14 10:26:40;;;;;;;;;;;8.90;99.90;;;;;;5056691;28;19924;-71
2021/10/14 10:29:15;;;;;;;;;;;9.00;99.90;;;;;;5052130;28;19925;-71
2021/10/14 10:31:55;;;;;;;;;;;9.00;99.90;;;;;;5067644;28;20279;-72
2021/10/14 10:34:41;;;;;;;;;;;9.00;99.90;;;;;;5065262;28;19932;-70
2021/10/14 10:37:26;;;;;;;;;;;9.20;99.90;;;;;;5069870;28;19931;-70
2021/10/14 10:39:56;;;;;;;;;;;9.30;99.90;;;;;;5070426;28;20391;-70
2021/10/14 10:42:31;;;;;;;;;;;9.40;99.90;;;;;;5072275;28;19935;-71
2021/10/14 10:45:13;;;;;;;;;;;9.40;99.90;;;;;;5073554;28;19932;-70
2021/10/14 10:47:43;;;;;;;;;;;9.50;99.90;;;;;;5089492;28;19931;-70
2021/10/14 10:50:17;;;;;;;;;;;9.50;99.90;;;;;;5064132;28;20349;-71
2021/10/14 10:52:46;;;;;;;;;;;9.60;99.90;;;;;;5055190;28;20383;-70
2021/10/14 10:55:21;;;;;;;;;;;9.70;99.90;;;;;;5070537;28;20020;-70
2021/10/14 10:57:54;;;;;;;;;;;9.70;99.90;;;;;;5095951;28;19924;-71
2021/10/14 11:00:22;;;;;;;;;;;9.70;99.90;;;;;;5065029;28;20297;-72
2021/10/14 11:03:07;;;;;;;;;;;9.80;99.90;;;;;;5072925;28;19928;-70
2021/10/14 11:05:39;;;;;;;;;;;9.90;99.90;;;;;;5089008;28;20023;-71
2021/10/14 11:08:12;;;;;;;;;;;10.00;99.90;;;;;;5089347;28;19977;-70
2021/10/14 11:10:39;;;;;;;;;;;10.00;99.90;;;;;;5072850;28;19935;-70
2021/10/14 11:13:06;;;;;;;;;;;10.10;99.90;;;;;;5072390;28;19924;-71
2021/10/14 11:15:33;;;;;;;;;;;10.20;99.90;;;;;;5070680;28;19932;-71
2021/10/14 11:18:04;;;;;;;;;;;10.20;99.90;;;;;;5054206;28;19931;-72
2021/10/14 11:20:31;;;;;;;;;;;10.30;99.90;;;;;;5053585;28;19931;-71
2021/10/14 11:23:02;;;;;;;;;;;10.40;99.90;;;;;;5071121;28;20405;-73
2021/10/14 11:25:29;;;;;;;;;;;10.60;99.90;;;;;;5055034;28;20339;-71
2021/10/14 11:28:02;;;;;;;;;;;10.60;99.90;;;;;;5055420;28;20007;-71
2021/10/14 11:30:39;;;;;;;;;;;10.70;99.90;;;;;;5071452;28;19978;-71
2021/10/14 11:33:28;;;;;;;;;;;10.80;99.90;;;;;;5070328;28;19981;-71
2021/10/14 11:36:02;;;;;;;;;;;10.70;99.90;;;;;;5071529;28;20382;-71
2021/10/14 11:38:34;;;;;;;;;;;10.70;99.90;;;;;;5087541;28;20002;-71
2021/10/14 11:41:02;;;;;;;;;;;10.70;99.90;;;;;;5066990;28;19978;-70
2021/10/14 11:43:30;;;;;;;;;;;10.70;99.90;;;;;;5069797;28;19928;-70
2021/10/14 11:45:58;;;;;;;;;;;10.80;99.90;;;;;;5070409;28;20026;-70
2021/10/14 11:48:26;;;;;;;;;;;10.90;99.90;;;;;;5070532;28;19971;-70
2021/10/14 11:51:01;;;;;;;;;;;10.80;99.90;;;;;;5070807;28;20401;-71
2021/10/14 11:53:34;;;;;;;;;;;10.80;99.90;;;;;;5050877;28;20388;-70
2021/10/14 11:56:04;;;;;;;;;;;10.90;99.90;;;;;;5056256;28;19924;-69
2021/10/14 11:58:35;;;;;;;;;;;11.00;99.90;;;;;;5048946;28;19925;-71
2021/10/14 12:01:03;;;;;;;;;;;11.10;99.90;;;;;;5048233;28;19924;-70
2021/10/14 12:03:33;;;;;;;;;;;11.10;99.90;;;;;;5101526;28;19924;-70
2021/10/14 12:06:05;;;;;;;;;;;11.20;99.90;;;;;;5068893;28;19924;-71
2021/10/14 12:08:38;;;;;;;;;;;11.30;99.90;;;;;;5103996;28;20284;-71
2021/10/14 12:11:16;;;;;;;;;;;11.40;99.90;;;;;;5070899;28;19981;-71
2021/10/14 12:13:58;;;;;;;;;;;11.40;99.90;;;;;;5069732;28;20390;-73
2021/10/14 12:16:30;;;;;;;;;;;11.50;99.90;;;;;;5070778;28;19929;-72
2021/10/14 12:19:12;;;;;;;;;;;11.70;99.90;;;;;;5051651;28;19929;-71
2021/10/14 12:21:45;;;;;;;;;;;11.80;99.90;;;;;;5065968;28;19924;-73
2021/10/14 12:24:25;;;;;;;;;;;11.70;99.90;;;;;;5064565;28;19924;-71
2021/10/14 12:26:57;;;;;;;;;;;11.60;99.90;;;;;;5070372;28;20015;-71
2021/10/14 12:29:30;;;;;;;;;;;11.80;99.90;;;;;;5067901;28;19928;-71
2021/10/14 12:32:13;;;;;;;;;;;11.80;99.90;;;;;;5074222;28;19924;-71
2021/10/14 12:34:46;;;;;;;;;;;11.80;99.90;;;;;;5102615;28;19924;-71
2021/10/14 12:37:18;;;;;;;;;;;11.70;99.90;;;;;;5070509;28;19928;-71
2021/10/14 12:39:45;;;;;;;;;;;11.80;99.90;;;;;;5069734;28;19924;-74
2021/10/14 12:42:18;;;;;;;;;;;11.80;99.90;;;;;;5071549;28;20589;-71
2021/10/14 12:44:59;;;;;;;;;;;11.70;99.90;;;;;;5083936;28;19925;-70
2021/10/14 12:53:12;;;;;;;;;;;11.70;99.90;;;;;;5070958;28;19928;-73
2021/10/14 12:55:53;;;;;;;;;;;11.80;99.90;;;;;;5086502;28;20023;-74
2021/10/14 12:58:26;;;;;;;;;;;11.90;99.90;;;;;;5070600;28;19928;-71
2021/10/14 13:01:17;;;;;;;;;;;12.00;99.90;;;;;;5073997;28;19960;-71
2021/10/14 13:03:50;;;;;;;;;;;12.10;99.90;;;;;;5067875;28;19924;-71
2021/10/14 13:06:22;;;;;;;;;;;12.20;99.90;;;;;;5074855;28;19970;-71
2021/10/14 13:08:55;;;;;;;;;;;12.20;99.90;;;;;;5074902;28;19924;-70
2021/10/14 13:11:21;;;;;;;;;;;12.30;99.90;;;;;;5073820;28;19946;-71
2021/10/14 13:13:53;;;;;;;;;;;12.40;99.90;;;;;;5072116;28;19924;-71
2021/10/14 13:16:20;;;;;;;;;;;12.50;99.90;;;;;;5073281;28;20302;-70
2021/10/14 13:18:52;;;;;;;;;;;12.40;99.90;;;;;;5073395;28;19924;-71
2021/10/14 13:21:19;;;;;;;;;;;12.30;99.90;;;;;;5107542;28;20009;-71
2021/10/14 13:23:50;;;;;;;;;;;12.40;99.90;;;;;;5073829;28;19985;-71
2021/10/14 13:26:23;;;;;;;;;;;12.40;99.90;;;;;;5074270;28;19933;-71
2021/10/14 13:28:55;;;;;;;;;;;12.50;99.90;;;;;;5091456;28;20275;-71
2021/10/14 13:31:27;;;;;;;;;;;12.60;99.90;;;;;;5087160;28;20310;-73
2021/10/14 13:33:59;;;;;;;;;;;12.80;99.90;;;;;;5095595;28;19959;-71
2021/10/14 13:36:31;;;;;;;;;;;12.80;99.90;;;;;;5072576;28;19931;-71
2021/10/14 13:38:58;;;;;;;;;;;12.80;99.90;;;;;;5074258;28;19925;-72
2021/10/14 13:41:31;;;;;;;;;;;12.90;99.90;;;;;;5072756;28;19928;-71
2021/10/14 13:44:05;;;;;;;;;;;12.90;99.90;;;;;;5071923;28;19924;-73
2021/10/14 13:46:32;;;;;;;;;;;12.80;99.90;;;;;;5073025;28;19925;-71
2021/10/14 13:48:58;;;;;;;;;;;12.80;99.90;;;;;;5106101;28;19931;-71
2021/10/14 13:51:30;;;;;;;;;;;12.90;99.90;;;;;;5073153;28;20406;-71
2021/10/14 13:54:03;;;;;;;;;;;13.00;99.90;;;;;;5073425;28;19932;-73
2021/10/14 13:56:35;;;;;;;;;;;13.10;99.90;;;;;;5073204;28;19932;-71
2021/10/14 13:59:01;;;;;;;;;;;13.00;99.90;;;;;;5074320;28;19978;-72
2021/10/14 14:01:34;;;;;;;;;;;13.00;99.90;;;;;;5051605;28;19925;-71
2021/10/14 14:04:06;;;;;;;;;;;13.00;99.90;;;;;;5073907;28;20398;-71
2021/10/14 14:06:33;;;;;;;;;;;13.20;99.90;;;;;;5071570;28;19924;-70
2021/10/14 14:09:06;;;;;;;;;;;13.30;99.90;;;;;;5073511;28;19925;-71
2021/10/14 14:11:40;;;;;;;;;;;13.50;99.90;;;;;;5053193;28;19951;-76
2021/10/14 14:14:12;;;;;;;;;;;13.50;99.90;;;;;;5069820;28;19924;-71
2021/10/14 14:16:44;;;;;;;;;;;13.40;99.90;;;;;;5072705;28;19978;-71
2021/10/14 14:19:16;;;;;;;;;;;13.20;99.90;;;;;;5072086;28;19924;-71
2021/10/14 14:21:46;;;;;;;;;;;13.20;99.90;;;;;;5070684;28;19932;-73
2021/10/14 14:24:17;;;;;;;;;;;13.10;99.90;;;;;;5075884;28;19925;-71
2021/10/14 14:26:49;;;;;;;;;;;13.00;99.90;;;;;;5072714;28;19928;-72
2021/10/14 14:29:21;;;;;;;;;;;12.90;99.90;;;;;;5056824;28;19925;-74
2021/10/14 14:31:53;;;;;;;;;;;12.90;99.90;;;;;;5072179;28;19924;-71
2021/10/14 14:34:25;;;;;;;;;;;12.80;99.90;;;;;;5058712;28;19929;-71
2021/10/14 14:36:57;;;;;;;;;;;12.80;99.90;;;;;;5072395;28;19924;-70
2021/10/14 14:39:28;;;;;;;;;;;12.70;99.90;;;;;;5072405;28;19978;-71
2021/10/14 14:42:00;;;;;;;;;;;12.70;99.90;;;;;;5091507;28;19940;-72
2021/10/14 14:44:32;;;;;;;;;;;12.70;99.90;;;;;;5074123;28;19925;-72
2021/10/14 14:47:04;;;;;;;;;;;12.60;99.90;;;;;;5071790;28;19924;-71
2021/10/14 14:49:36;;;;;;;;;;;12.60;99.90;;;;;;5070936;28;19931;-71
2021/10/14 14:52:03;;;;;;;;;;;12.50;99.90;;;;;;5105189;28;19924;-71